Time;durP1;ratioP1;P1;durP2;ratioP2;P2;SDS_P1;SDS_P2;PMS_P1;PMS_P2;Temp;Humidity;BMP_temperature;BMP_pressure;BME280_temperature;BME280_humidity;BME280_pressure;Samples;Min_cycle;Max_cycle;Signal;HPM_P1;HPM_P2
2023/12/17 00:00:07;;;;;;;13.25;7.03;;;;;;;;;;5093236;28;20415;-83
2023/12/17 00:02:33;;;;;;;13.63;6.55;;;;;;;;;;5093744;28;20429;-84
2023/12/17 00:04:59;;;;;;;15.43;6.90;;;;;;;;;;5076532;28;20826;-83
2023/12/17 00:07:25;;;;;;;16.85;6.90;;;;;;;;;;5071469;28;20592;-84
2023/12/17 00:09:52;;;;;;;13.50;6.47;;;;;;;;;;5035578;28;20462;-84
2023/12/17 00:12:20;;;;;;;14.85;6.50;;;;;;;;;;5041276;28;20426;-84
2023/12/17 00:14:47;;;;;;;13.95;6.53;;;;;;;;;;5069768;28;20402;-84
2023/12/17 00:17:13;;;;;;;17.38;7.00;;;;;;;;;;5086405;28;20466;-84
2023/12/17 00:19:39;;;;;;;12.27;6.63;;;;;;;;;;5070472;28;20398;-83
2023/12/17 00:22:05;;;;;;;14.98;6.30;;;;;;;;;;5052570;28;20457;-84
2023/12/17 00:24:31;;;;;;;11.65;6.25;;;;;;;;;;5089301;28;20418;-84
2023/12/17 00:26:57;;;;;;;14.10;6.95;;;;;;;;;;5069986;28;20420;-84
2023/12/17 00:29:24;;;;;;;13.57;7.00;;;;;;;;;;5070088;28;20454;-84
2023/12/17 00:31:50;;;;;;;13.10;6.28;;;;;;;;;;5086267;28;20445;-86
2023/12/17 00:34:16;;;;;;;14.15;6.82;;;;;;;;;;5091658;28;20880;-86
2023/12/17 00:36:42;;;;;;;11.48;6.50;;;;;;;;;;5050208;28;20399;-86
2023/12/17 00:39:08;;;;;;;16.43;7.00;;;;;;;;;;5071693;28;20502;-86
2023/12/17 00:41:34;;;;;;;15.10;7.22;;;;;;;;;;5073092;28;20408;-86
2023/12/17 00:44:00;;;;;;;14.95;6.53;;;;;;;;;;5071587;28;20424;-85
2023/12/17 00:46:26;;;;;;;15.80;7.25;;;;;;;;;;5077733;28;20496;-86
2023/12/17 00:48:52;;;;;;;16.58;6.97;;;;;;;;;;5092011;28;20401;-86
2023/12/17 00:51:19;;;;;;;16.05;6.57;;;;;;;;;;5045778;28;20394;-86
2023/12/17 00:53:45;;;;;;;14.13;7.05;;;;;;;;;;5056502;28;20395;-86
2023/12/17 00:56:11;;;;;;;13.50;6.90;;;;;;;;;;5122990;27;20405;-86
2023/12/17 00:58:37;;;;;;;11.52;6.60;;;;;;;;;;5061857;28;20511;-86
2023/12/17 01:01:03;;;;;;;13.00;7.05;;;;;;;;;;5090060;28;20423;-85
2023/12/17 01:03:30;;;;;;;14.80;7.03;;;;;;;;;;5089044;28;20426;-86
2023/12/17 01:05:56;;;;;;;13.68;6.57;;;;;;;;;;5085382;28;20445;-86
2023/12/17 01:08:22;;;;;;;13.05;6.25;;;;;;;;;;5093329;28;20412;-86
2023/12/17 01:10:48;;;;;;;15.15;6.60;;;;;;;;;;5077008;28;20406;-86
2023/12/17 01:13:14;;;;;;;12.60;6.30;;;;;;;;;;5089749;28;20441;-85
2023/12/17 01:15:42;;;;;;;17.23;6.63;;;;;;;;;;5087962;28;20458;-85
2023/12/17 01:18:08;;;;;;;13.70;6.05;;;;;;;;;;5066206;28;20760;-85
2023/12/17 01:20:34;;;;;;;11.70;6.07;;;;;;;;;;5063461;28;20744;-85
2023/12/17 01:23:00;;;;;;;13.40;6.25;;;;;;;;;;5089470;28;20414;-85
2023/12/17 01:25:27;;;;;;;12.52;6.07;;;;;;;;;;5073119;28;20432;-84
2023/12/17 01:27:53;;;;;;;13.23;5.90;;;;;;;;;;5055642;28;20490;-86
2023/12/17 01:30:19;;;;;;;13.38;6.22;;;;;;;;;;5055614;28;20411;-85
2023/12/17 01:32:45;;;;;;;12.60;5.93;;;;;;;;;;5070411;28;20423;-86
2023/12/17 01:35:12;;;;;;;9.60;5.95;;;;;;;;;;5085315;28;20394;-85
2023/12/17 01:37:38;;;;;;;11.18;5.30;;;;;;;;;;5056742;28;20407;-86
2023/12/17 01:40:04;;;;;;;10.52;5.68;;;;;;;;;;5088539;28;20404;-86
2023/12/17 01:42:30;;;;;;;10.85;5.35;;;;;;;;;;5089174;28;20791;-85
2023/12/17 01:44:56;;;;;;;12.98;5.88;;;;;;;;;;5074988;28;20434;-85
2023/12/17 01:47:22;;;;;;;12.27;5.70;;;;;;;;;;5062784;28;20424;-85
2023/12/17 01:49:48;;;;;;;12.00;6.00;;;;;;;;;;5087079;28;20491;-86
2023/12/17 01:52:15;;;;;;;10.63;5.18;;;;;;;;;;5089037;28;20396;-85
2023/12/17 01:54:41;;;;;;;13.68;5.38;;;;;;;;;;5078914;28;20405;-85
2023/12/17 01:57:07;;;;;;;11.80;5.63;;;;;;;;;;5063919;28;20401;-85
2023/12/17 01:59:33;;;;;;;11.55;5.65;;;;;;;;;;5040800;28;20443;-85
2023/12/17 02:02:00;;;;;;;12.77;5.50;;;;;;;;;;5058100;28;20400;-85
2023/12/17 02:04:27;;;;;;;11.88;5.45;;;;;;;;;;5070473;28;20427;-86
2023/12/17 02:06:53;;;;;;;11.88;5.80;;;;;;;;;;5089586;28;20430;-85
2023/12/17 02:09:19;;;;;;;13.02;6.22;;;;;;;;;;5072172;28;20404;-84
2023/12/17 02:11:45;;;;;;;10.25;5.72;;;;;;;;;;5057295;28;20396;-85
2023/12/17 02:14:11;;;;;;;14.20;5.63;;;;;;;;;;5070958;28;20407;-86
2023/12/17 02:16:37;;;;;;;15.10;5.72;;;;;;;;;;5087936;28;20411;-86
2023/12/17 02:19:03;;;;;;;15.53;6.13;;;;;;;;;;5080478;28;20529;-86
2023/12/17 02:21:29;;;;;;;11.38;6.18;;;;;;;;;;5037027;28;20472;-85
2023/12/17 02:23:55;;;;;;;14.57;6.40;;;;;;;;;;5086280;28;20414;-86
2023/12/17 02:26:21;;;;;;;12.87;6.30;;;;;;;;;;5052738;28;20400;-86
2023/12/17 02:28:48;;;;;;;13.43;6.88;;;;;;;;;;5088459;28;20395;-85
2023/12/17 02:31:14;;;;;;;13.15;7.03;;;;;;;;;;5087494;28;20414;-85
2023/12/17 02:33:40;;;;;;;13.40;6.67;;;;;;;;;;5071604;28;20435;-85
2023/12/17 02:36:06;;;;;;;14.70;7.10;;;;;;;;;;5055337;28;20399;-85
2023/12/17 02:38:32;;;;;;;13.32;7.15;;;;;;;;;;5073025;28;20432;-86
2023/12/17 02:40:58;;;;;;;17.93;7.47;;;;;;;;;;5087389;28;20403;-85
2023/12/17 02:43:24;;;;;;;15.57;7.55;;;;;;;;;;5069954;28;20396;-85
2023/12/17 02:45:50;;;;;;;14.30;7.13;;;;;;;;;;5070623;28;20456;-85
2023/12/17 02:48:16;;;;;;;13.75;7.60;;;;;;;;;;5056992;28;20398;-85
2023/12/17 02:50:42;;;;;;;15.07;7.40;;;;;;;;;;5072884;28;20434;-85
2023/12/17 02:53:09;;;;;;;13.95;7.20;;;;;;;;;;5085246;28;20457;-85
2023/12/17 02:55:35;;;;;;;17.85;7.63;;;;;;;;;;5087881;28;20807;-85
2023/12/17 02:58:04;;;;;;;17.03;7.53;;;;;;;;;;5078583;28;20398;-85
2023/12/17 03:00:30;;;;;;;13.87;7.33;;;;;;;;;;5069980;28;20414;-85
2023/12/17 03:02:57;;;;;;;18.73;7.78;;;;;;;;;;5070338;28;20403;-85
2023/12/17 03:05:23;;;;;;;14.45;7.07;;;;;;;;;;5071950;28;20455;-85
2023/12/17 03:07:49;;;;;;;14.13;7.53;;;;;;;;;;5082969;28;20563;-86
2023/12/17 03:10:15;;;;;;;17.40;8.33;;;;;;;;;;5086183;28;20477;-85
2023/12/17 03:12:41;;;;;;;13.90;7.80;;;;;;;;;;5087299;28;20403;-85
2023/12/17 03:15:08;;;;;;;18.77;8.45;;;;;;;;;;5073277;28;20411;-85
2023/12/17 03:17:37;;;;;;;17.75;8.38;;;;;;;;;;5069987;28;20422;-86
2023/12/17 03:20:06;;;;;;;16.00;8.25;;;;;;;;;;5060805;28;20464;-86
2023/12/17 03:22:32;;;;;;;16.63;8.73;;;;;;;;;;5070784;28;20446;-85
2023/12/17 03:24:58;;;;;;;15.40;8.73;;;;;;;;;;5085911;28;20430;-85
2023/12/17 03:27:25;;;;;;;25.13;10.25;;;;;;;;;;5059069;28;20799;-85
2023/12/17 03:29:51;;;;;;;21.00;9.50;;;;;;;;;;5070492;28;20892;-85
2023/12/17 03:32:18;;;;;;;22.88;9.70;;;;;;;;;;5089974;28;20898;-85
2023/12/17 03:34:44;;;;;;;22.23;9.55;;;;;;;;;;5036500;28;20439;-85
2023/12/17 03:37:10;;;;;;;23.58;10.48;;;;;;;;;;5087090;28;20401;-85
2023/12/17 03:39:36;;;;;;;21.77;10.00;;;;;;;;;;5068585;28;20403;-84
2023/12/17 03:42:02;;;;;;;19.48;9.85;;;;;;;;;;5068849;28;20932;-84
2023/12/17 03:44:29;;;;;;;19.95;9.80;;;;;;;;;;5087635;28;20431;-85
2023/12/17 03:46:55;;;;;;;20.83;9.70;;;;;;;;;;5057262;28;20744;-84
2023/12/17 03:49:21;;;;;;;21.60;10.10;;;;;;;;;;5086639;28;20395;-85
2023/12/17 03:51:47;;;;;;;19.15;9.30;;;;;;;;;;5052776;28;20404;-84
2023/12/17 03:54:14;;;;;;;23.70;9.65;;;;;;;;;;5105238;28;20483;-84
2023/12/17 03:56:46;;;;;;;21.83;9.73;;;;;;;;;;5072115;28;20418;-84
2023/12/17 03:59:12;;;;;;;18.92;9.40;;;;;;;;;;5085320;28;20464;-84
2023/12/17 04:01:47;;;;;;;22.30;9.10;;;;;;;;;;5085258;28;20392;-85
2023/12/17 04:04:13;;;;;;;18.40;9.48;;;;;;;;;;5087272;28;20442;-85
2023/12/17 04:06:43;;;;;;;19.73;8.93;;;;;;;;;;5069967;28;20460;-85
2023/12/17 04:09:09;;;;;;;20.35;9.13;;;;;;;;;;5069462;28;20879;-85
2023/12/17 04:11:35;;;;;;;20.30;8.77;;;;;;;;;;5068373;28;21118;-86
2023/12/17 04:14:02;;;;;;;22.73;10.65;;;;;;;;;;5073334;28;20398;-85
2023/12/17 04:16:28;;;;;;;20.23;9.73;;;;;;;;;;5062129;28;20418;-85
2023/12/17 04:18:54;;;;;;;20.65;9.10;;;;;;;;;;5062956;28;20821;-84
2023/12/17 04:21:20;;;;;;;20.70;9.10;;;;;;;;;;5077407;28;20485;-84
2023/12/17 04:23:46;;;;;;;19.77;8.93;;;;;;;;;;5093651;28;20758;-85
2023/12/17 04:26:12;;;;;;;20.08;9.30;;;;;;;;;;5095611;28;20516;-85
2023/12/17 04:28:38;;;;;;;18.40;8.95;;;;;;;;;;5061711;28;20404;-85
2023/12/17 04:31:05;;;;;;;20.95;9.20;;;;;;;;;;5058700;28;20421;-85
2023/12/17 04:33:31;;;;;;;19.95;8.98;;;;;;;;;;5111343;28;20487;-86
2023/12/17 04:35:58;;;;;;;18.42;9.00;;;;;;;;;;5094871;28;20772;-83
2023/12/17 04:38:24;;;;;;;17.30;9.40;;;;;;;;;;5093439;28;20401;-84
2023/12/17 04:40:50;;;;;;;17.42;9.02;;;;;;;;;;5092875;28;20808;-83
2023/12/17 04:43:16;;;;;;;16.55;9.02;;;;;;;;;;5059402;28;20412;-83
2023/12/17 04:45:42;;;;;;;15.40;8.50;;;;;;;;;;5087471;28;20424;-84
2023/12/17 04:48:08;;;;;;;16.42;8.38;;;;;;;;;;5082732;28;20810;-83
2023/12/17 04:50:34;;;;;;;19.70;9.10;;;;;;;;;;5092781;28;20402;-84
2023/12/17 04:53:00;;;;;;;16.88;8.30;;;;;;;;;;5110567;28;20394;-84
2023/12/17 04:55:26;;;;;;;15.48;8.02;;;;;;;;;;5115546;27;20407;-83
2023/12/17 04:57:52;;;;;;;17.63;8.50;;;;;;;;;;5074315;28;20893;-84
2023/12/17 05:00:19;;;;;;;15.48;8.73;;;;;;;;;;5052371;28;20416;-83
2023/12/17 05:02:45;;;;;;;22.67;9.33;;;;;;;;;;5058326;28;20822;-83
2023/12/17 05:05:11;;;;;;;18.88;9.60;;;;;;;;;;5062630;28;20422;-83
2023/12/17 05:07:37;;;;;;;18.70;9.35;;;;;;;;;;5072778;28;20526;-83
2023/12/17 05:10:03;;;;;;;17.13;9.10;;;;;;;;;;5068520;28;20485;-83
2023/12/17 05:12:29;;;;;;;19.67;9.45;;;;;;;;;;5072862;28;20495;-84
2023/12/17 05:14:55;;;;;;;20.05;10.23;;;;;;;;;;5077974;28;20397;-84
2023/12/17 05:17:21;;;;;;;18.77;9.70;;;;;;;;;;5072131;28;20410;-84
2023/12/17 05:19:47;;;;;;;18.73;9.80;;;;;;;;;;5091085;28;20978;-83
2023/12/17 05:22:13;;;;;;;16.80;10.13;;;;;;;;;;5092174;28;20947;-83
2023/12/17 05:24:40;;;;;;;19.23;10.57;;;;;;;;;;5076629;28;20424;-83
2023/12/17 05:27:06;;;;;;;18.57;10.33;;;;;;;;;;5108418;28;20396;-82
2023/12/17 05:29:32;;;;;;;19.60;11.00;;;;;;;;;;5092086;28;20440;-83
2023/12/17 05:31:58;;;;;;;21.70;10.57;;;;;;;;;;5105064;28;20895;-83
2023/12/17 05:34:26;;;;;;;19.38;10.77;;;;;;;;;;5059105;28;20447;-83
2023/12/17 05:36:52;;;;;;;17.63;10.82;;;;;;;;;;5109350;28;20409;-83
2023/12/17 05:39:18;;;;;;;20.92;10.95;;;;;;;;;;5107230;28;20830;-83
2023/12/17 05:41:44;;;;;;;16.20;11.15;;;;;;;;;;5092625;28;20393;-83
2023/12/17 05:44:11;;;;;;;21.05;12.63;;;;;;;;;;5075186;28;20430;-84
2023/12/17 05:46:37;;;;;;;20.55;12.20;;;;;;;;;;5083937;28;20813;-85
2023/12/17 05:49:03;;;;;;;19.00;12.00;;;;;;;;;;5059561;28;20561;-84
2023/12/17 05:51:29;;;;;;;23.58;11.88;;;;;;;;;;5078257;28;20416;-84
2023/12/17 05:53:55;;;;;;;21.08;12.10;;;;;;;;;;5092674;28;20533;-85
2023/12/17 05:56:21;;;;;;;20.70;11.32;;;;;;;;;;5044550;28;20404;-84
2023/12/17 05:58:47;;;;;;;17.30;10.27;;;;;;;;;;5054375;28;20476;-84
2023/12/17 06:01:14;;;;;;;20.42;10.57;;;;;;;;;;5057873;28;20410;-84
2023/12/17 06:03:40;;;;;;;19.63;9.25;;;;;;;;;;5066688;28;20753;-84
2023/12/17 06:06:07;;;;;;;17.77;9.55;;;;;;;;;;5063516;28;20479;-85
2023/12/17 06:08:33;;;;;;;15.95;9.35;;;;;;;;;;5075074;28;20397;-85
2023/12/17 06:10:59;;;;;;;20.48;9.80;;;;;;;;;;5079235;28;20898;-85
2023/12/17 06:13:25;;;;;;;15.82;9.18;;;;;;;;;;5107892;28;20458;-84
2023/12/17 06:15:52;;;;;;;14.77;9.00;;;;;;;;;;5064897;28;20409;-84
2023/12/17 06:18:18;;;;;;;16.15;8.55;;;;;;;;;;5080792;28;20419;-84
2023/12/17 06:20:44;;;;;;;15.38;9.02;;;;;;;;;;5090586;28;20921;-83
2023/12/17 06:23:11;;;;;;;15.23;8.48;;;;;;;;;;5077911;28;20733;-82
2023/12/17 06:25:37;;;;;;;18.87;9.10;;;;;;;;;;5049264;28;20512;-84
2023/12/17 06:28:03;;;;;;;14.98;8.27;;;;;;;;;;5108290;28;20398;-84
2023/12/17 06:30:32;;;;;;;14.95;7.88;;;;;;;;;;5087029;28;20409;-84
2023/12/17 06:32:59;;;;;;;17.83;7.82;;;;;;;;;;5073705;28;20483;-84
2023/12/17 06:35:25;;;;;;;16.67;7.60;;;;;;;;;;5074277;28;20429;-84
2023/12/17 06:37:51;;;;;;;20.10;7.55;;;;;;;;;;5091041;28;20466;-84
2023/12/17 06:40:17;;;;;;;14.30;7.18;;;;;;;;;;5090110;28;20889;-85
2023/12/17 06:42:43;;;;;;;17.45;7.30;;;;;;;;;;5108001;28;20408;-84
2023/12/17 06:45:10;;;;;;;12.95;8.00;;;;;;;;;;5063977;28;20418;-85
2023/12/17 06:47:36;;;;;;;15.15;6.97;;;;;;;;;;5071542;28;20390;-85
2023/12/17 06:50:02;;;;;;;14.80;7.27;;;;;;;;;;5078533;28;20418;-84
2023/12/17 06:52:28;;;;;;;14.00;7.30;;;;;;;;;;5077237;28;20481;-85
2023/12/17 06:54:54;;;;;;;14.70;6.93;;;;;;;;;;5072400;28;20485;-85
2023/12/17 06:57:20;;;;;;;14.63;6.60;;;;;;;;;;5091654;28;20459;-86
2023/12/17 06:59:46;;;;;;;16.15;7.25;;;;;;;;;;5056162;28;20418;-85
2023/12/17 07:02:12;;;;;;;16.63;6.85;;;;;;;;;;5066787;28;20406;-85
2023/12/17 07:04:38;;;;;;;14.98;6.38;;;;;;;;;;5065418;28;20817;-85
2023/12/17 07:07:05;;;;;;;16.23;7.30;;;;;;;;;;5058981;28;20404;-86
2023/12/17 07:09:31;;;;;;;19.13;6.90;;;;;;;;;;5091846;28;20467;-86
2023/12/17 07:11:57;;;;;;;13.52;6.30;;;;;;;;;;5056417;28;20405;-85
2023/12/17 07:14:23;;;;;;;17.60;7.00;;;;;;;;;;5048101;28;20982;-84
2023/12/17 07:16:49;;;;;;;16.55;7.35;;;;;;;;;;5083370;28;20433;-85
2023/12/17 07:19:15;;;;;;;16.83;7.15;;;;;;;;;;5069768;28;20403;-86
2023/12/17 07:21:41;;;;;;;19.08;7.82;;;;;;;;;;5087184;28;20739;-85
2023/12/17 07:24:07;;;;;;;14.32;7.70;;;;;;;;;;5049360;28;20403;-85
2023/12/17 07:26:34;;;;;;;16.13;8.35;;;;;;;;;;5053995;28;20883;-84
2023/12/17 07:29:00;;;;;;;15.10;7.90;;;;;;;;;;5103060;27;20478;-85
2023/12/17 07:31:26;;;;;;;14.90;7.97;;;;;;;;;;5068723;28;20466;-85
2023/12/17 07:33:52;;;;;;;18.83;8.43;;;;;;;;;;5058623;28;20908;-85
2023/12/17 07:36:18;;;;;;;20.52;8.25;;;;;;;;;;5076120;28;20400;-86
2023/12/17 07:38:45;;;;;;;19.63;8.38;;;;;;;;;;5086720;28;20453;-85
2023/12/17 07:41:14;;;;;;;17.33;8.10;;;;;;;;;;5072496;28;20747;-86
2023/12/17 07:43:40;;;;;;;17.42;7.88;;;;;;;;;;5086683;28;20403;-86
2023/12/17 07:46:07;;;;;;;17.73;8.15;;;;;;;;;;5066907;28;20949;-87
2023/12/17 07:48:33;;;;;;;17.05;7.93;;;;;;;;;;5058253;28;20431;-87
2023/12/17 07:51:01;;;;;;;16.40;8.20;;;;;;;;;;5091254;28;20404;-86
2023/12/17 07:53:30;;;;;;;16.42;8.73;;;;;;;;;;5091303;28;20415;-85
2023/12/17 07:56:05;;;;;;;17.93;8.60;;;;;;;;;;5086679;28;20440;-87
2023/12/17 07:58:34;;;;;;;21.90;9.02;;;;;;;;;;5071205;28;20414;-85
2023/12/17 08:01:18;;;;;;;16.52;9.05;;;;;;;;;;5072745;28;20428;-85
2023/12/17 08:03:50;;;;;;;16.52;8.98;;;;;;;;;;5071720;28;20401;-86
2023/12/17 08:06:26;;;;;;;18.73;9.63;;;;;;;;;;5091950;28;20426;-86
2023/12/17 08:09:08;;;;;;;20.98;9.65;;;;;;;;;;5072908;28;20399;-85
2023/12/17 08:11:41;;;;;;;18.98;10.35;;;;;;;;;;5057485;28;20794;-85
2023/12/17 08:14:48;;;;;;;20.47;10.87;;;;;;;;;;5105947;28;20964;-85
2023/12/17 08:17:22;;;;;;;23.13;11.98;;;;;;;;;;5027338;28;20434;-85
2023/12/17 08:19:52;;;;;;;20.73;12.38;;;;;;;;;;5027211;28;20400;-85
2023/12/17 08:22:23;;;;;;;24.88;12.43;;;;;;;;;;5064171;28;20405;-84
2023/12/17 08:24:49;;;;;;;22.63;13.45;;;;;;;;;;5072345;28;20960;-84
2023/12/17 08:27:24;;;;;;;24.97;14.23;;;;;;;;;;5096314;28;20398;-84
2023/12/17 08:29:55;;;;;;;28.00;14.63;;;;;;;;;;5063461;28;20419;-82
2023/12/17 08:32:23;;;;;;;24.05;14.82;;;;;;;;;;5073288;28;20453;-85
2023/12/17 08:34:49;;;;;;;28.17;15.80;;;;;;;;;;5070937;28;20851;-87
2023/12/17 08:37:15;;;;;;;24.98;14.95;;;;;;;;;;5095903;28;20450;-84
2023/12/17 08:39:49;;;;;;;30.45;16.27;;;;;;;;;;5059426;28;20399;-85
2023/12/17 08:42:15;;;;;;;33.58;16.08;;;;;;;;;;5072952;28;20871;-86
2023/12/17 08:44:47;;;;;;;27.27;16.02;;;;;;;;;;5066674;28;20421;-87
2023/12/17 08:47:15;;;;;;;30.27;16.55;;;;;;;;;;5046427;28;20771;-87
2023/12/17 08:50:17;;;;;;;33.45;17.63;;;;;;;;;;5042954;28;20885;-84
2023/12/17 08:53:03;;;;;;;32.50;17.90;;;;;;;;;;5015221;28;20413;-86
2023/12/17 09:03:27;;;;;;;36.60;18.77;;;;;;;;;;4869584;29;20400;-83
2023/12/17 09:05:53;;;;;;;34.25;17.17;;;;;;;;;;4858977;29;20580;-82
2023/12/17 09:08:33;;;;;;;31.98;16.58;;;;;;;;;;4961876;28;20401;-82
2023/12/17 09:11:26;;;;;;;27.02;16.58;;;;;;;;;;5007820;28;20418;-82
2023/12/17 09:13:58;;;;;;;31.90;16.15;;;;;;;;;;5011349;28;20805;-82
2023/12/17 09:16:28;;;;;;;29.90;16.02;;;;;;;;;;5058041;28;20862;-82
2023/12/17 09:18:54;;;;;;;33.55;15.63;;;;;;;;;;5059817;28;20744;-82
2023/12/17 09:21:36;;;;;;;;;;;;;;;;;;;;;
2023/12/17 09:27:09;;;;;;;28.75;15.23;;;;;;;;;;5068734;28;20403;-86
2023/12/17 09:29:57;;;;;;;29.35;15.07;;;;;;;;;;5059238;28;20434;-82
2023/12/17 09:32:43;;;;;;;30.67;14.93;;;;;;;;;;5059305;28;20465;-85
2023/12/17 09:35:13;;;;;;;29.20;14.03;;;;;;;;;;5085898;28;20402;-82
2023/12/17 09:38:14;;;;;;;27.63;14.05;;;;;;;;;;5080425;28;20436;-82
2023/12/17 09:41:19;;;;;;;;;;;;;;;;;;;;;
2023/12/17 09:44:18;;;;;;;27.10;14.02;;;;;;;;;;5064113;28;20398;-82
2023/12/17 09:50:11;;;;;;;31.23;14.40;;;;;;;;;;5091095;28;20419;-79
2023/12/17 09:52:41;;;;;;;27.70;14.98;;;;;;;;;;5091596;28;20901;-81
2023/12/17 09:55:07;;;;;;;30.70;14.48;;;;;;;;;;5074008;28;20398;-83
2023/12/17 09:57:34;;;;;;;30.05;14.40;;;;;;;;;;5047028;28;20641;-82
2023/12/17 10:00:07;;;;;;;24.85;13.95;;;;;;;;;;5095997;28;20419;-83
2023/12/17 10:02:38;;;;;;;30.67;15.15;;;;;;;;;;5089272;28;20401;-83
2023/12/17 10:05:06;;;;;;;29.25;14.52;;;;;;;;;;5067631;28;20428;-82
2023/12/17 10:07:38;;;;;;;27.50;15.23;;;;;;;;;;5061207;28;20499;-83
2023/12/17 10:10:04;;;;;;;24.55;14.68;;;;;;;;;;5071152;28;20398;-84
2023/12/17 10:12:41;;;;;;;28.20;15.40;;;;;;;;;;5088060;28;21018;-84
2023/12/17 10:15:13;;;;;;;25.67;15.07;;;;;;;;;;5069120;28;20406;-85
2023/12/17 10:17:42;;;;;;;25.38;15.45;;;;;;;;;;5090509;28;20421;-82
2023/12/17 10:20:13;;;;;;;28.50;15.68;;;;;;;;;;5073325;28;20398;-83
2023/12/17 10:22:39;;;;;;;30.02;17.45;;;;;;;;;;5073319;28;20544;-80
2023/12/17 10:25:05;;;;;;;34.45;18.95;;;;;;;;;;5073244;28;20798;-82
2023/12/17 10:27:50;;;;;;;32.88;17.90;;;;;;;;;;5084322;28;20397;-82
2023/12/17 10:30:27;;;;;;;32.97;19.00;;;;;;;;;;5047960;28;20397;-82
2023/12/17 10:33:03;;;;;;;37.03;20.20;;;;;;;;;;5089256;28;20398;-82
2023/12/17 10:35:32;;;;;;;36.15;21.10;;;;;;;;;;5089807;28;20477;-85
2023/12/17 10:38:08;;;;;;;36.63;21.40;;;;;;;;;;5090530;28;20432;-85
2023/12/17 10:40:41;;;;;;;37.17;21.00;;;;;;;;;;5090590;28;20897;-81
2023/12/17 10:43:10;;;;;;;35.95;20.70;;;;;;;;;;5088226;28;20894;-85
2023/12/17 10:45:37;;;;;;;37.92;20.77;;;;;;;;;;5072774;28;20509;-85
2023/12/17 10:48:13;;;;;;;36.55;19.90;;;;;;;;;;5089767;28;20418;-85
2023/12/17 10:51:14;;;;;;;31.67;19.83;;;;;;;;;;5088951;28;20386;-85
2023/12/17 10:56:35;;;;;;;33.20;20.53;;;;;;;;;;5078467;28;20478;-86
2023/12/17 10:59:06;;;;;;;36.15;20.25;;;;;;;;;;5077351;28;20412;-84
2023/12/17 11:01:32;;;;;;;33.88;20.40;;;;;;;;;;5059913;28;20432;-85
2023/12/17 11:03:59;;;;;;;32.28;20.45;;;;;;;;;;5074994;28;20409;-85
2023/12/17 11:06:36;;;;;;;32.07;20.50;;;;;;;;;;5090388;28;20408;-85
2023/12/17 11:09:05;;;;;;;31.27;19.27;;;;;;;;;;5055903;28;20421;-85
2023/12/17 11:11:35;;;;;;;32.55;19.63;;;;;;;;;;5064293;28;20772;-85
2023/12/17 11:14:38;;;;;;;;;;;;;;;;;;;;;
2023/12/17 11:17:12;;;;;;;;;;;;;;;;;;;;;
2023/12/17 11:20:00;;;;;;;26.75;17.88;;;;;;;;;;5066779;28;20510;-85
2023/12/17 11:22:34;;;;;;;26.10;17.52;;;;;;;;;;5083974;28;20449;-86
2023/12/17 11:25:18;;;;;;;27.70;17.75;;;;;;;;;;5047080;28;20431;-87
2023/12/17 11:31:18;;;;;;;;;;;;;;;;;;;;;
2023/12/17 11:33:47;;;;;;;27.57;16.80;;;;;;;;;;5071845;28;20930;-84
2023/12/17 11:36:17;;;;;;;29.98;16.77;;;;;;;;;;5058534;28;20401;-84
2023/12/17 11:38:48;;;;;;;28.05;17.65;;;;;;;;;;5083465;28;20797;-85
2023/12/17 11:41:17;;;;;;;27.95;17.60;;;;;;;;;;5052805;28;20410;-83
2023/12/17 11:44:02;;;;;;;26.77;16.17;;;;;;;;;;5053730;28;20410;-83
2023/12/17 11:46:28;;;;;;;27.60;15.93;;;;;;;;;;5071955;28;20486;-84
2023/12/17 11:48:57;;;;;;;24.10;16.02;;;;;;;;;;5040375;28;20451;-84
2023/12/17 11:51:26;;;;;;;23.50;16.83;;;;;;;;;;5058961;28;20418;-85
2023/12/17 11:57:16;;;;;;;27.87;17.07;;;;;;;;;;5082517;28;20836;-84
2023/12/17 11:59:42;;;;;;;29.63;17.42;;;;;;;;;;5070728;28;20403;-86
2023/12/17 12:02:28;;;;;;;26.67;17.33;;;;;;;;;;5046966;28;20978;-85
2023/12/17 12:11:43;;;;;;;24.60;16.85;;;;;;;;;;4999610;28;20443;-88
2023/12/17 12:14:32;;;;;;;26.08;17.23;;;;;;;;;;5012416;28;20409;-88
2023/12/17 12:17:18;;;;;;;25.17;16.58;;;;;;;;;;5016635;28;20463;-89
2023/12/17 12:20:10;;;;;;;27.63;16.23;;;;;;;;;;5065052;28;20458;-89
2023/12/17 12:22:47;;;;;;;25.38;16.52;;;;;;;;;;5052872;28;20487;-85
2023/12/17 12:25:25;;;;;;;25.00;15.90;;;;;;;;;;5013556;28;20431;-88
2023/12/17 12:27:57;;;;;;;24.92;16.20;;;;;;;;;;5007376;28;20789;-87
2023/12/17 12:30:33;;;;;;;23.08;16.17;;;;;;;;;;5014222;28;20408;-88
2023/12/17 12:33:14;;;;;;;25.05;16.70;;;;;;;;;;5018298;28;20416;-87
2023/12/17 12:36:15;;;;;;;27.40;16.23;;;;;;;;;;5032886;28;20393;-88
2023/12/17 12:38:44;;;;;;;28.38;15.88;;;;;;;;;;5051517;28;20872;-88
2023/12/17 12:41:12;;;;;;;26.35;16.00;;;;;;;;;;5074237;28;20436;-89
2023/12/17 12:43:41;;;;;;;26.88;16.60;;;;;;;;;;5058137;28;20899;-88
2023/12/17 12:46:34;;;;;;;25.23;15.47;;;;;;;;;;5064378;28;20462;-87
2023/12/17 12:49:03;;;;;;;25.45;16.13;;;;;;;;;;5036886;28;20438;-88
2023/12/17 12:51:56;;;;;;;24.33;15.95;;;;;;;;;;5060370;28;20461;-87
2023/12/17 12:54:28;;;;;;;27.83;15.68;;;;;;;;;;5043698;28;20516;-87
2023/12/17 13:00:25;;;;;;;21.67;15.37;;;;;;;;;;5048364;28;20404;-88
2023/12/17 13:03:11;;;;;;;26.33;15.95;;;;;;;;;;5067997;28;20469;-87
2023/12/17 13:05:44;;;;;;;23.80;15.23;;;;;;;;;;5051296;28;20921;-87
2023/12/17 13:08:13;;;;;;;26.08;15.60;;;;;;;;;;5056102;28;20415;-89
2023/12/17 13:10:45;;;;;;;24.80;15.50;;;;;;;;;;5027527;28;20405;-89
2023/12/17 13:13:11;;;;;;;24.67;15.18;;;;;;;;;;5034038;28;20401;-89
2023/12/17 13:15:57;;;;;;;21.83;15.23;;;;;;;;;;5032940;28;20936;-87
2023/12/17 13:18:31;;;;;;;24.00;15.15;;;;;;;;;;5066835;28;20444;-89
2023/12/17 13:21:01;;;;;;;22.98;15.40;;;;;;;;;;5033958;28;20408;-88
2023/12/17 13:27:39;;;;;;;22.95;15.13;;;;;;;;;;4972678;28;20403;-87
2023/12/17 13:30:06;;;;;;;25.50;15.63;;;;;;;;;;4986605;28;20396;-87
2023/12/17 13:33:03;;;;;;;24.13;15.23;;;;;;;;;;4984553;28;20839;-87
2023/12/17 13:35:33;;;;;;;24.48;15.50;;;;;;;;;;4953163;28;20420;-87
2023/12/17 13:38:01;;;;;;;27.17;16.20;;;;;;;;;;5017687;28;20434;-86
2023/12/17 13:40:30;;;;;;;27.88;16.70;;;;;;;;;;5017819;28;20405;-86
2023/12/17 13:42:59;;;;;;;28.00;17.17;;;;;;;;;;5092819;28;20432;-87
2023/12/17 13:45:41;;;;;;;30.48;18.55;;;;;;;;;;5091167;28;20436;-86
2023/12/17 13:48:08;;;;;;;31.90;18.15;;;;;;;;;;5072598;28;20405;-87
2023/12/17 13:50:41;;;;;;;30.80;18.70;;;;;;;;;;5090995;28;20873;-88
2023/12/17 13:53:19;;;;;;;31.30;19.08;;;;;;;;;;5090065;28;20424;-88
2023/12/17 13:55:51;;;;;;;32.10;18.88;;;;;;;;;;5091931;28;20413;-88
2023/12/17 13:58:17;;;;;;;32.45;19.25;;;;;;;;;;5092420;28;20456;-88
2023/12/17 14:00:44;;;;;;;31.10;19.40;;;;;;;;;;5092748;28;20402;-88
2023/12/17 14:03:13;;;;;;;30.60;18.98;;;;;;;;;;5057198;28;20417;-88
2023/12/17 14:05:51;;;;;;;28.90;18.23;;;;;;;;;;5087238;28;20416;-87
2023/12/17 14:08:17;;;;;;;30.27;18.98;;;;;;;;;;5081893;28;20888;-91
2023/12/17 14:10:43;;;;;;;30.67;18.88;;;;;;;;;;5090440;28;20535;-89
2023/12/17 14:13:12;;;;;;;32.25;19.27;;;;;;;;;;5093494;28;20402;-90
2023/12/17 14:15:38;;;;;;;28.45;18.23;;;;;;;;;;5113037;28;20409;-91
2023/12/17 14:18:05;;;;;;;29.17;17.87;;;;;;;;;;5076670;28;20429;-90
2023/12/17 14:20:31;;;;;;;28.63;18.00;;;;;;;;;;5077272;28;20430;-91
2023/12/17 14:22:57;;;;;;;26.97;18.10;;;;;;;;;;5049547;28;20410;-91
2023/12/17 14:25:23;;;;;;;29.52;17.88;;;;;;;;;;5072606;28;20874;-91
2023/12/17 14:27:49;;;;;;;26.58;17.90;;;;;;;;;;5061470;28;20470;-91
2023/12/17 14:30:15;;;;;;;28.63;17.40;;;;;;;;;;5058127;28;20492;-91
2023/12/17 14:32:42;;;;;;;27.13;16.55;;;;;;;;;;5060271;28;20399;-91
2023/12/17 14:35:11;;;;;;;27.88;16.13;;;;;;;;;;5075621;28;20429;-92
2023/12/17 14:37:38;;;;;;;28.45;16.25;;;;;;;;;;5055850;28;20811;-90
2023/12/17 14:40:07;;;;;;;26.13;15.38;;;;;;;;;;5056267;28;20411;-91
2023/12/17 14:42:34;;;;;;;25.77;15.90;;;;;;;;;;5049485;28;20413;-91
2023/12/17 14:45:01;;;;;;;26.23;15.43;;;;;;;;;;5059141;28;20433;-91
2023/12/17 14:47:27;;;;;;;26.30;15.05;;;;;;;;;;5092276;28;20508;-90
2023/12/17 14:49:53;;;;;;;24.03;14.63;;;;;;;;;;5090903;28;20410;-91
2023/12/17 14:52:19;;;;;;;24.25;14.85;;;;;;;;;;5092405;28;20441;-91
2023/12/17 14:54:45;;;;;;;21.90;13.82;;;;;;;;;;5059263;28;20496;-91
2023/12/17 14:57:12;;;;;;;26.23;13.90;;;;;;;;;;5058854;28;20404;-92
2023/12/17 14:59:38;;;;;;;27.20;14.10;;;;;;;;;;5058649;28;20398;-91
2023/12/17 15:02:04;;;;;;;24.27;13.30;;;;;;;;;;5062196;28;20406;-90
2023/12/17 15:04:31;;;;;;;27.13;13.90;;;;;;;;;;5089850;28;20451;-92
2023/12/17 15:06:57;;;;;;;20.60;12.38;;;;;;;;;;5067796;28;20428;-92
2023/12/17 15:09:24;;;;;;;23.33;12.57;;;;;;;;;;5110144;28;20394;-92
2023/12/17 15:12:10;;;;;;;24.10;13.03;;;;;;;;;;5059111;28;20810;-87
2023/12/17 15:15:16;;;;;;;24.80;12.88;;;;;;;;;;5032737;28;20448;-87
2023/12/17 15:18:06;;;;;;;23.13;11.90;;;;;;;;;;5005148;28;20427;-88
2023/12/17 15:20:42;;;;;;;20.65;11.30;;;;;;;;;;5019926;28;20406;-88